createdAt,value
2022-11-10T00:00:50.218Z,98680.00
2022-11-10T00:03:35.543Z,98685.31
2022-11-10T00:06:20.400Z,98679.94
2022-11-10T00:09:06.547Z,98686.13
2022-11-10T00:11:51.873Z,98688.22
2022-11-10T00:14:55.743Z,98697.38
2022-11-10T00:17:41.045Z,98702.34
2022-11-10T00:20:25.816Z,98702.66
2022-11-10T00:23:10.824Z,98708.66
2022-11-10T00:25:55.883Z,98711.16
2022-11-10T00:28:40.998Z,98706.34
2022-11-10T00:31:28.629Z,98709.47
2022-11-10T00:34:15.056Z,98708.81
2022-11-10T00:37:00.134Z,98707.97
2022-11-10T00:39:44.992Z,98710.09
2022-11-10T00:42:30.017Z,98718.53
2022-11-10T00:45:14.958Z,98724.56
2022-11-10T00:47:59.900Z,98726.66
2022-11-10T00:50:45.030Z,98736.34
2022-11-10T00:53:29.859Z,98733.50
2022-11-10T00:56:14.847Z,98737.97
2022-11-10T00:59:00.062Z,98733.97
2022-11-10T01:01:45.362Z,98737.94
2022-11-10T01:04:30.332Z,98744.75
2022-11-10T01:07:15.373Z,98742.19
2022-11-10T01:10:00.346Z,98750.03
2022-11-10T01:12:45.276Z,98756.09
2022-11-10T01:15:30.111Z,98754.28
2022-11-10T01:18:15.920Z,98768.31
2022-11-10T01:21:00.840Z,98768.41
2022-11-10T01:23:46.174Z,98768.81
2022-11-10T01:26:31.256Z,98783.72
2022-11-10T01:29:16.261Z,98780.25
2022-11-10T01:32:01.128Z,98785.34
2022-11-10T01:34:46.166Z,98790.00
2022-11-10T01:37:31.016Z,98780.19
2022-11-10T01:40:16.135Z,98780.44
2022-11-10T01:43:01.580Z,98784.41
2022-11-10T01:45:53.449Z,98783.00
2022-11-10T01:48:44.763Z,98783.72
2022-11-10T01:51:30.534Z,98794.31
2022-11-10T01:54:18.319Z,98806.88
2022-11-10T01:57:05.267Z,98793.84
2022-11-10T01:59:51.280Z,98805.59
2022-11-10T02:02:56.797Z,98795.25
2022-11-10T02:05:42.385Z,98802.34
2022-11-10T02:08:27.330Z,98793.94
2022-11-10T02:11:12.584Z,98803.78
2022-11-10T02:13:57.623Z,98809.19
2022-11-10T02:16:42.659Z,98808.16
2022-11-10T02:19:28.249Z,98812.06
2022-11-10T02:22:13.376Z,98814.72
2022-11-10T02:24:58.805Z,98827.44
2022-11-10T02:27:43.703Z,98824.56
2022-11-10T02:30:28.820Z,98829.84
2022-11-10T02:33:13.818Z,98832.91
2022-11-10T02:35:58.883Z,98838.41
2022-11-10T02:38:43.669Z,98850.09
2022-11-10T02:41:28.640Z,98844.69
2022-11-10T02:44:13.575Z,98847.94
2022-11-10T02:46:58.474Z,98849.63
2022-11-10T02:49:45.086Z,98856.81
2022-11-10T02:52:30.217Z,98864.22
2022-11-10T02:55:15.777Z,98868.25
2022-11-10T02:58:00.698Z,98863.41
2022-11-10T03:00:45.786Z,98870.16
2022-11-10T03:03:30.704Z,98874.31
2022-11-10T03:06:15.571Z,98880.38
2022-11-10T03:09:00.687Z,98877.16
2022-11-10T03:11:45.485Z,98881.78
2022-11-10T03:14:30.457Z,98876.78
2022-11-10T03:17:15.367Z,98886.38
2022-11-10T03:20:00.351Z,98894.66
2022-11-10T03:22:45.414Z,98896.13
2022-11-10T03:25:30.605Z,98893.53
2022-11-10T03:28:15.566Z,98906.56
2022-11-10T03:31:00.810Z,98907.06
2022-11-10T03:33:46.071Z,98906.94
2022-11-10T03:36:31.064Z,98908.69
2022-11-10T03:39:16.041Z,98913.94
2022-11-10T03:42:01.127Z,98919.00
2022-11-10T03:44:46.104Z,98916.34
2022-11-10T03:47:31.038Z,98917.03
2022-11-10T03:50:16.179Z,98922.09
2022-11-10T03:53:01.361Z,98919.44
2022-11-10T03:55:46.304Z,98922.31
2022-11-10T03:58:31.306Z,98928.69
2022-11-10T04:01:16.236Z,98928.44
2022-11-10T04:04:01.653Z,98931.31
2022-11-10T04:07:05.500Z,98940.50
2022-11-10T04:09:50.554Z,98940.75
2022-11-10T04:12:54.321Z,98947.31
2022-11-10T04:15:42.198Z,98945.69
2022-11-10T04:18:27.167Z,98965.28
2022-11-10T04:21:12.329Z,98967.25
2022-11-10T04:23:57.179Z,98965.97
2022-11-10T04:26:42.958Z,98965.28
2022-11-10T04:29:28.054Z,98975.88
2022-11-10T04:32:13.466Z,98979.09
2022-11-10T04:34:59.036Z,98984.13
2022-11-10T04:37:43.918Z,98981.91
2022-11-10T04:40:29.269Z,98981.44
2022-11-10T04:43:14.096Z,98982.41
2022-11-10T04:45:59.243Z,98981.56
2022-11-10T04:48:44.409Z,98987.91
2022-11-10T04:51:30.531Z,98996.28
2022-11-10T04:54:15.864Z,99005.91
2022-11-10T04:57:00.621Z,98999.41
2022-11-10T04:59:45.537Z,99003.56
2022-11-10T05:02:34.384Z,99003.56
2022-11-10T05:05:21.849Z,99004.41
2022-11-10T05:08:07.189Z,99017.50
2022-11-10T05:10:52.148Z,99023.91
2022-11-10T05:13:37.086Z,99026.97
2022-11-10T05:16:22.417Z,99039.94
2022-11-10T05:19:08.261Z,99040.78
2022-11-10T05:21:53.271Z,99039.25
2022-11-10T05:24:38.997Z,99049.84
2022-11-10T05:27:23.957Z,99047.59
2022-11-10T05:30:09.204Z,99047.47
2022-11-10T05:32:54.241Z,99050.53
2022-11-10T05:35:39.524Z,99055.28
2022-11-10T05:38:24.466Z,99052.75
2022-11-10T05:41:09.555Z,99052.59
2022-11-10T05:43:54.958Z,99054.28
2022-11-10T05:46:39.883Z,99056.53
2022-11-10T05:49:24.839Z,99061.09
2022-11-10T05:52:09.740Z,99052.03
2022-11-10T05:54:55.552Z,99059.03
2022-11-10T05:57:46.890Z,99059.16
2022-11-10T06:00:32.275Z,99070.16
2022-11-10T06:03:18.052Z,99073.91
2022-11-10T06:06:03.470Z,99084.84
2022-11-10T06:08:48.943Z,99086.16
2022-11-10T06:11:34.988Z,99097.53
2022-11-10T06:14:19.885Z,99089.34
2022-11-10T06:17:04.834Z,99104.38
2022-11-10T06:19:50.194Z,99105.44
2022-11-10T06:22:35.075Z,99126.28
2022-11-10T06:25:19.898Z,99121.22
2022-11-10T06:28:05.162Z,99117.63
2022-11-10T06:30:50.667Z,99124.81
2022-11-10T06:33:36.153Z,99141.50
2022-11-10T06:36:21.547Z,99134.66
2022-11-10T06:39:06.841Z,99147.66
2022-11-10T06:41:53.084Z,99154.88
2022-11-10T06:44:37.983Z,99160.06
2022-11-10T06:47:22.819Z,99176.63
2022-11-10T06:50:07.881Z,99186.88
2022-11-10T06:52:59.321Z,99190.09
2022-11-10T06:55:44.427Z,99199.22
2022-11-10T06:58:29.377Z,99212.22
2022-11-10T07:01:17.663Z,99224.66
2022-11-10T07:04:19.353Z,99219.78
2022-11-10T07:07:05.409Z,99222.63
2022-11-10T07:09:50.328Z,99229.44
2022-11-10T07:12:35.251Z,99241.72
2022-11-10T07:15:20.261Z,99254.25
2022-11-10T07:18:05.236Z,99253.97
2022-11-10T07:20:50.220Z,99259.44
2022-11-10T07:23:35.167Z,99250.66
2022-11-10T07:26:20.258Z,99256.34
2022-11-10T07:29:05.584Z,99260.69
2022-11-10T07:31:50.658Z,99263.31
2022-11-10T07:34:35.699Z,99266.25
2022-11-10T07:37:20.651Z,99263.75
2022-11-10T07:40:06.092Z,99265.44
2022-11-10T07:42:51.242Z,99272.09
2022-11-10T07:45:36.465Z,99274.75
2022-11-10T07:48:21.594Z,99279.94
2022-11-10T07:51:07.072Z,99278.28
2022-11-10T07:53:52.357Z,99286.06
2022-11-10T07:56:37.497Z,99289.97
2022-11-10T07:59:22.542Z,99295.84
2022-11-10T08:02:09.291Z,99303.66
2022-11-10T08:04:54.955Z,99304.88
2022-11-10T08:07:41.308Z,99314.25
2022-11-10T08:10:27.430Z,99309.78
2022-11-10T08:13:12.972Z,99313.56
2022-11-10T08:15:59.577Z,99319.13
2022-11-10T08:18:44.933Z,99321.50
2022-11-10T08:21:30.042Z,99321.13
2022-11-10T08:24:14.872Z,99315.94
2022-11-10T08:26:59.696Z,99328.91
2022-11-10T08:29:44.475Z,99325.84
2022-11-10T08:32:29.535Z,99336.16
2022-11-10T08:35:14.384Z,99332.22
2022-11-10T08:37:59.244Z,99334.03
2022-11-10T08:40:44.447Z,99336.97
2022-11-10T08:43:30.050Z,99338.94
2022-11-10T08:46:15.396Z,99339.59
2022-11-10T08:49:00.431Z,99338.47
2022-11-10T08:51:45.516Z,99345.59
2022-11-10T08:54:30.340Z,99342.63
2022-11-10T08:57:15.518Z,99342.88
2022-11-10T09:00:00.827Z,99360.00
2022-11-10T09:02:45.991Z,99349.41
2022-11-10T09:05:31.044Z,99357.28
2022-11-10T09:08:16.060Z,99360.03
2022-11-10T09:11:04.359Z,99370.06
2022-11-10T09:13:49.514Z,99367.72
2022-11-10T09:16:34.426Z,99363.84
2022-11-10T09:19:20.147Z,99376.16
2022-11-10T09:22:05.518Z,99372.81
2022-11-10T09:24:50.534Z,99384.97
2022-11-10T09:27:36.291Z,99385.78
2022-11-10T09:30:21.351Z,99386.09
2022-11-10T09:33:06.984Z,99384.56
2022-11-10T09:35:56.519Z,99388.16
2022-11-10T09:38:42.116Z,99404.25
2022-11-10T09:41:29.971Z,99408.66
2022-11-10T09:44:16.627Z,99415.06
2022-11-10T09:47:50.481Z,99414.91
2022-11-10T09:50:37.820Z,99422.97
2022-11-10T09:53:23.788Z,99420.38
2022-11-10T09:56:09.136Z,99421.31
2022-11-10T09:58:54.386Z,99422.53
2022-11-10T10:01:47.650Z,99425.63
2022-11-10T10:04:33.001Z,99426.97
2022-11-10T10:07:18.574Z,99427.28
2022-11-10T10:10:24.266Z,99429.53
2022-11-10T10:13:12.059Z,99432.28
2022-11-10T10:16:10.669Z,99433.06
2022-11-10T10:19:05.315Z,99430.25
2022-11-10T10:21:50.406Z,99431.38
2022-11-10T10:24:35.343Z,99425.22
2022-11-10T10:27:21.663Z,99428.66
2022-11-10T10:30:14.840Z,99424.47
2022-11-10T10:33:19.521Z,99422.94
2022-11-10T10:36:06.623Z,99431.25
2022-11-10T10:38:56.044Z,99436.31
2022-11-10T10:41:41.304Z,99440.56
2022-11-10T10:44:26.319Z,99437.84
2022-11-10T10:47:11.202Z,99440.66
2022-11-10T10:50:05.864Z,99430.38
2022-11-10T10:53:07.362Z,99431.50
2022-11-10T10:56:05.576Z,99427.56
2022-11-10T10:58:57.429Z,99425.69
2022-11-10T11:01:46.768Z,99430.84
2022-11-10T11:04:32.245Z,99425.94
2022-11-10T11:07:22.779Z,99427.34
2022-11-10T11:10:22.135Z,99426.56
2022-11-10T11:13:16.433Z,99432.78
2022-11-10T11:16:02.300Z,99435.13
2022-11-10T11:18:47.186Z,99432.88
2022-11-10T11:21:34.807Z,99427.63
2022-11-10T11:24:40.329Z,99430.72
2022-11-10T11:27:44.392Z,99431.56
2022-11-10T11:30:48.352Z,99433.16
2022-11-10T11:33:36.079Z,99442.84
2022-11-10T11:36:24.867Z,99442.31
2022-11-10T11:39:48.659Z,99432.81
2022-11-10T11:42:45.807Z,99428.06
2022-11-10T11:45:33.734Z,99436.81
2022-11-10T11:48:21.737Z,99430.72
2022-11-10T11:51:10.218Z,99434.47
2022-11-10T11:54:16.218Z,99437.97
2022-11-10T11:57:07.155Z,99432.41
2022-11-10T11:59:59.262Z,99431.97
2022-11-10T12:02:52.473Z,99431.41
2022-11-10T12:05:44.012Z,99425.47
2022-11-10T12:08:31.890Z,99414.13
2022-11-10T12:11:20.473Z,99417.09
2022-11-10T12:14:05.453Z,99414.72
2022-11-10T12:16:58.432Z,99405.47
2022-11-10T12:20:03.750Z,99419.28
2022-11-10T12:22:57.754Z,99421.69
2022-11-10T12:26:01.746Z,99429.31
2022-11-10T12:28:50.378Z,99420.56
2022-11-10T12:31:36.067Z,99414.16
2022-11-10T12:34:28.637Z,99412.59
2022-11-10T12:37:27.522Z,99412.91
2022-11-10T12:40:13.144Z,99417.00
2022-11-10T12:43:02.284Z,99417.97
2022-11-10T12:45:49.220Z,99404.91
2022-11-10T12:48:36.343Z,99413.75
2022-11-10T12:51:32.367Z,99414.66
2022-11-10T12:54:17.624Z,99413.19
2022-11-10T12:57:04.715Z,99408.41
2022-11-10T12:59:56.728Z,99408.13
2022-11-10T13:02:42.669Z,99410.16
2022-11-10T13:05:27.669Z,99408.81
2022-11-10T13:08:12.665Z,99407.56
2022-11-10T13:10:58.080Z,99410.78
2022-11-10T13:13:46.493Z,99417.91
2022-11-10T13:16:40.626Z,99420.69
2022-11-10T13:19:29.091Z,99421.38
2022-11-10T13:22:43.571Z,99429.38
2022-11-10T13:25:37.761Z,99427.81
2022-11-10T13:28:41.512Z,99431.66
2022-11-10T13:31:31.057Z,99438.03
2022-11-10T13:34:19.119Z,99437.47
2022-11-10T13:37:22.888Z,99420.59
2022-11-10T13:40:16.971Z,99425.28
2022-11-10T13:43:01.973Z,99422.94
2022-11-10T13:45:47.064Z,99423.00
2022-11-10T13:49:04.566Z,99434.25
2022-11-10T13:52:12.720Z,99434.75
2022-11-10T13:55:16.796Z,99447.78
2022-11-10T13:58:02.474Z,99457.75
2022-11-10T14:00:51.144Z,99450.84
2022-11-10T14:03:45.670Z,99452.88
2022-11-10T14:06:40.696Z,99450.47
2022-11-10T14:09:27.731Z,99454.06
2022-11-10T14:12:30.537Z,99454.03
2022-11-10T14:15:20.185Z,99460.63
2022-11-10T14:18:11.644Z,99462.50
2022-11-10T14:20:57.644Z,99461.72
2022-11-10T14:23:42.888Z,99459.84
2022-11-10T14:26:44.544Z,99463.63
2022-11-10T14:29:29.562Z,99455.44
2022-11-10T14:32:21.581Z,99459.44
2022-11-10T14:35:06.596Z,99458.66
2022-11-10T14:37:57.612Z,99464.69
2022-11-10T14:40:43.329Z,99461.22
2022-11-10T14:43:29.946Z,99464.50
2022-11-10T14:46:15.706Z,99474.13
2022-11-10T14:49:01.999Z,99480.47
2022-11-10T14:51:47.281Z,99488.59
2022-11-10T14:54:32.492Z,99488.59
2022-11-10T14:57:18.814Z,99493.91
2022-11-10T15:00:08.479Z,99491.03
2022-11-10T15:02:54.564Z,99493.72
2022-11-10T15:05:39.429Z,99499.91
2022-11-10T15:08:24.701Z,99504.81
2022-11-10T15:11:29.092Z,99498.38
2022-11-10T15:14:35.435Z,99505.50
2022-11-10T15:17:20.941Z,99511.22
2022-11-10T15:20:07.712Z,99508.72
2022-11-10T15:22:53.004Z,99508.72
2022-11-10T15:25:39.617Z,99508.59
2022-11-10T15:28:29.582Z,99508.16
2022-11-10T15:31:27.735Z,99519.47
2022-11-10T15:34:28.073Z,99527.44
2022-11-10T15:37:20.635Z,99524.06
2022-11-10T15:40:25.977Z,99526.69
2022-11-10T15:43:15.413Z,99521.78
2022-11-10T15:46:01.644Z,99529.34
2022-11-10T15:48:47.828Z,99531.78
2022-11-10T15:51:32.810Z,99533.31
2022-11-10T15:54:19.111Z,99535.53
2022-11-10T15:57:04.302Z,99540.38
2022-11-10T15:59:49.902Z,99547.19
2022-11-10T16:02:34.787Z,99546.63
2022-11-10T16:05:19.837Z,99542.69
2022-11-10T16:08:05.764Z,99552.69
2022-11-10T16:10:51.917Z,99554.78
2022-11-10T16:13:37.088Z,99557.69
2022-11-10T16:16:24.095Z,99553.78
2022-11-10T16:19:09.780Z,99556.81
2022-11-10T16:21:54.703Z,99562.81
2022-11-10T16:24:40.239Z,99559.19
2022-11-10T16:27:25.272Z,99565.19
2022-11-10T16:30:13.914Z,99563.78
2022-11-10T16:32:59.653Z,99575.47
2022-11-10T16:35:44.592Z,99572.78
2022-11-10T16:38:29.938Z,99579.41
2022-11-10T16:41:15.295Z,99582.31
2022-11-10T16:44:00.134Z,99579.81
2022-11-10T16:46:45.778Z,99580.47
2022-11-10T16:49:44.002Z,99605.66
2022-11-10T16:52:29.267Z,99603.50
2022-11-10T16:55:14.227Z,99604.47
2022-11-10T16:58:01.701Z,99613.63
2022-11-10T17:00:47.526Z,99614.97
2022-11-10T17:03:36.643Z,99613.66
2022-11-10T17:06:21.773Z,99617.56
2022-11-10T17:09:13.369Z,99623.41
2022-11-10T17:11:58.522Z,99615.13
2022-11-10T17:14:43.635Z,99616.94
2022-11-10T17:17:28.552Z,99615.38
2022-11-10T17:20:23.970Z,99609.38
2022-11-10T17:23:10.658Z,99607.59
2022-11-10T17:25:55.787Z,99605.41
2022-11-10T17:28:46.145Z,99608.56
2022-11-10T17:31:31.135Z,99613.03
2022-11-10T17:34:16.398Z,99615.94
2022-11-10T17:37:01.123Z,99617.97
2022-11-10T17:39:46.106Z,99620.03
2022-11-10T17:42:30.975Z,99622.66
2022-11-10T17:45:19.941Z,99627.72
2022-11-10T17:48:05.157Z,99643.47
2022-11-10T17:50:50.319Z,99650.19
2022-11-10T17:53:35.263Z,99641.44
2022-11-10T17:56:20.683Z,99637.81
2022-11-10T17:59:05.601Z,99639.38
2022-11-10T18:01:50.390Z,99653.19
2022-11-10T18:04:35.760Z,99648.66
2022-11-10T18:07:20.643Z,99660.06
2022-11-10T18:10:06.085Z,99648.72
2022-11-10T18:12:51.303Z,99650.19
2022-11-10T18:15:36.855Z,99655.97
2022-11-10T18:18:21.836Z,99658.59
2022-11-10T18:21:06.846Z,99662.69
2022-11-10T18:23:52.088Z,99664.50
2022-11-10T18:26:37.187Z,99668.09
2022-11-10T18:29:22.709Z,99669.91
2022-11-10T18:32:07.646Z,99673.41
2022-11-10T18:34:52.497Z,99674.72
2022-11-10T18:37:39.252Z,99675.56
2022-11-10T18:40:24.870Z,99675.06
2022-11-10T18:43:09.920Z,99675.56
2022-11-10T18:45:54.820Z,99672.81
2022-11-10T18:48:40.748Z,99674.09
2022-11-10T18:51:26.154Z,99671.94
2022-11-10T18:54:10.930Z,99678.94
2022-11-10T18:56:56.032Z,99679.41
2022-11-10T18:59:41.057Z,99670.50
2022-11-10T19:02:26.105Z,99668.72
2022-11-10T19:05:11.100Z,99667.38
2022-11-10T19:07:56.016Z,99658.00
2022-11-10T19:10:44.020Z,99674.22
2022-11-10T19:13:28.848Z,99670.38
2022-11-10T19:16:15.665Z,99664.84
2022-11-10T19:19:01.849Z,99672.16
2022-11-10T19:21:46.679Z,99668.91
2022-11-10T19:24:42.361Z,99673.22
2022-11-10T19:27:36.827Z,99678.50
2022-11-10T19:30:21.727Z,99677.94
2022-11-10T19:33:06.826Z,99678.16
2022-11-10T19:35:51.854Z,99675.03
2022-11-10T19:38:36.934Z,99683.00
2022-11-10T19:41:26.409Z,99685.84
2022-11-10T19:44:11.368Z,99689.72
2022-11-10T19:46:56.485Z,99694.50
2022-11-10T19:49:41.443Z,99684.69
2022-11-10T19:52:26.896Z,99686.91
2022-11-10T19:55:11.831Z,99674.78
2022-11-10T19:57:57.174Z,99683.06
2022-11-10T20:00:46.719Z,99683.28
2022-11-10T20:03:32.289Z,99686.56
2022-11-10T20:06:19.329Z,99697.16
2022-11-10T20:09:05.033Z,99699.28
2022-11-10T20:11:50.424Z,99702.78
2022-11-10T20:14:35.715Z,99699.88
2022-11-10T20:17:20.674Z,99709.97
2022-11-10T20:20:06.015Z,99706.75
2022-11-10T20:22:51.010Z,99705.06
2022-11-10T20:25:35.975Z,99719.47
2022-11-10T20:28:21.087Z,99728.66
2022-11-10T20:31:07.850Z,99726.38
2022-11-10T20:33:53.513Z,99722.72
2022-11-10T20:36:38.969Z,99731.09
2022-11-10T20:39:23.875Z,99731.56
2022-11-10T20:42:10.449Z,99730.38
2022-11-10T20:44:55.831Z,99736.84
2022-11-10T20:47:40.732Z,99736.22
2022-11-10T20:50:26.134Z,99741.84
2022-11-10T20:53:10.996Z,99749.13
2022-11-10T20:55:57.943Z,99759.50
2022-11-10T20:58:43.202Z,99760.56
2022-11-10T21:01:28.013Z,99752.78
2022-11-10T21:04:13.597Z,99757.94
2022-11-10T21:06:59.129Z,99750.41
2022-11-10T21:09:44.062Z,99738.06
2022-11-10T21:12:47.735Z,99726.66
2022-11-10T21:15:33.114Z,99721.56
2022-11-10T21:18:18.642Z,99720.00
2022-11-10T21:21:04.740Z,99725.19
2022-11-10T21:23:57.079Z,99728.47
2022-11-10T21:26:42.507Z,99736.59
2022-11-10T21:29:27.641Z,99731.44
2022-11-10T21:32:12.657Z,99726.94
2022-11-10T21:34:57.605Z,99737.53
2022-11-10T21:37:42.553Z,99737.31
2022-11-10T21:40:27.616Z,99737.94
2022-11-10T21:43:13.311Z,99734.97
2022-11-10T21:45:59.352Z,99727.59
2022-11-10T21:48:45.132Z,99725.38
2022-11-10T21:51:30.373Z,99728.34
2022-11-10T21:54:15.533Z,99735.63
2022-11-10T21:57:01.015Z,99722.00
2022-11-10T21:59:45.984Z,99729.31
2022-11-10T22:02:30.950Z,99729.41
2022-11-10T22:05:16.323Z,99717.41
2022-11-10T22:08:01.325Z,99707.44
2022-11-10T22:11:05.103Z,99711.22
2022-11-10T22:14:08.988Z,99713.75
2022-11-10T22:17:12.857Z,99702.47
2022-11-10T22:19:58.134Z,99705.94
2022-11-10T22:22:44.314Z,99705.56
2022-11-10T22:25:29.445Z,99712.91
2022-11-10T22:28:14.503Z,99717.78
2022-11-10T22:31:01.852Z,99723.50
2022-11-10T22:33:47.142Z,99727.16
2022-11-10T22:36:32.434Z,99722.09
2022-11-10T22:39:17.912Z,99715.75
2022-11-10T22:42:21.463Z,99722.72
2022-11-10T22:45:06.919Z,99718.63
2022-11-10T22:48:12.207Z,99720.22
2022-11-10T22:50:57.765Z,99729.06
2022-11-10T22:53:42.838Z,99727.16
2022-11-10T22:56:27.758Z,99705.25
2022-11-10T22:59:13.055Z,99700.69
2022-11-10T23:01:58.292Z,99697.66
2022-11-10T23:04:43.588Z,99703.88
2022-11-10T23:07:28.606Z,99704.19
2022-11-10T23:10:13.659Z,99703.13
2022-11-10T23:12:58.539Z,99716.00
2022-11-10T23:15:45.227Z,99727.47
2022-11-10T23:18:30.523Z,99732.03
2022-11-10T23:21:16.877Z,99746.03
2022-11-10T23:24:02.068Z,99740.25
2022-11-10T23:26:46.964Z,99737.09
2022-11-10T23:29:31.947Z,99746.34
2022-11-10T23:32:16.805Z,99751.94
2022-11-10T23:35:01.765Z,99743.94
2022-11-10T23:37:46.709Z,99746.13
2022-11-10T23:40:31.603Z,99734.03
2022-11-10T23:43:16.540Z,99728.44
2022-11-10T23:46:08.788Z,99736.13
2022-11-10T23:48:54.104Z,99732.56
2022-11-10T23:51:39.345Z,99740.88
2022-11-10T23:54:24.237Z,99739.59
2022-11-10T23:57:09.255Z,99745.75
2022-11-10T23:59:54.158Z,99745.09
